createdAt,value
2018-03-18T00:00:18.314Z,-1.97
2018-03-18T00:01:18.227Z,-2.04
2018-03-18T00:02:18.141Z,-2.02
2018-03-18T00:03:18.053Z,-2.01
2018-03-18T00:04:17.964Z,-2.17
2018-03-18T00:05:17.877Z,-2.09
2018-03-18T00:06:17.791Z,-2.02
2018-03-18T00:07:17.703Z,-2.04
2018-03-18T00:08:17.765Z,-2.15
2018-03-18T00:09:17.528Z,-2.12
2018-03-18T00:10:17.440Z,-2.20
2018-03-18T00:11:17.353Z,-2.17
2018-03-18T00:12:17.265Z,-2.12
2018-03-18T00:13:17.178Z,-2.15
2018-03-18T00:14:17.091Z,-2.17
2018-03-18T00:15:17.003Z,-2.13
2018-03-18T00:16:16.915Z,-2.16
2018-03-18T00:17:16.828Z,-2.19
2018-03-18T00:18:16.741Z,-2.25
2018-03-18T00:19:16.653Z,-2.17
2018-03-18T00:20:16.565Z,-2.27
2018-03-18T00:21:16.478Z,-2.34
2018-03-18T00:22:16.390Z,-2.22
2018-03-18T00:23:16.303Z,-2.22
2018-03-18T00:24:16.214Z,-2.23
2018-03-18T00:25:16.127Z,-2.23
2018-03-18T00:26:16.040Z,-2.12
2018-03-18T00:27:15.953Z,-2.06
2018-03-18T00:28:15.864Z,-2.20
2018-03-18T00:29:15.779Z,-2.16
2018-03-18T00:30:15.693Z,-2.17
2018-03-18T00:31:15.604Z,-2.25
2018-03-18T00:32:15.514Z,-2.17
2018-03-18T00:33:15.427Z,-2.16
2018-03-18T00:34:15.341Z,-2.13
2018-03-18T00:35:15.260Z,-2.09
2018-03-18T00:36:15.164Z,-2.25
2018-03-18T00:37:15.075Z,-2.20
2018-03-18T00:38:14.989Z,-2.20
2018-03-18T00:39:14.901Z,-2.13
2018-03-18T00:40:14.813Z,-2.22
2018-03-18T00:41:14.726Z,-2.20
2018-03-18T00:42:14.639Z,-2.16
2018-03-18T00:43:14.551Z,-2.10
2018-03-18T00:44:14.463Z,-2.07
2018-03-18T00:45:14.379Z,-2.19
2018-03-18T00:46:14.289Z,-2.12
2018-03-18T00:47:14.202Z,-2.16
2018-03-18T00:48:14.113Z,-2.07
2018-03-18T00:49:14.026Z,-2.09
2018-03-18T00:50:13.939Z,-2.16
2018-03-18T00:51:13.852Z,-2.09
2018-03-18T00:52:13.763Z,-2.13
2018-03-18T00:53:13.675Z,-2.16
2018-03-18T00:54:13.646Z,-2.22
2018-03-18T00:55:13.502Z,-2.15
2018-03-18T00:56:13.415Z,-2.13
2018-03-18T00:57:13.325Z,-2.02
2018-03-18T00:58:13.238Z,-2.07
2018-03-18T00:59:13.151Z,-2.15
2018-03-18T01:00:13.062Z,-2.25
2018-03-18T01:01:12.976Z,-2.25
2018-03-18T01:02:12.888Z,-2.19
2018-03-18T01:03:12.802Z,-2.27
2018-03-18T01:04:12.713Z,-2.25
2018-03-18T01:05:12.637Z,-2.25
2018-03-18T01:06:12.538Z,-2.19
2018-03-18T01:07:12.451Z,-2.32
2018-03-18T01:08:12.362Z,-2.36
2018-03-18T01:09:12.275Z,-2.36
2018-03-18T01:10:12.188Z,-2.23
2018-03-18T01:11:12.101Z,-2.23
2018-03-18T01:12:12.012Z,-2.20
2018-03-18T01:13:11.923Z,-2.23
2018-03-18T01:14:11.837Z,-2.27
2018-03-18T01:15:11.749Z,-2.38
2018-03-18T01:16:11.661Z,-2.35
2018-03-18T01:17:11.573Z,-2.47
2018-03-18T01:18:11.486Z,-2.47
2018-03-18T01:19:11.398Z,-2.32
2018-03-18T01:20:11.310Z,-2.53
2018-03-18T01:21:11.223Z,-2.38
2018-03-18T01:22:11.134Z,-2.45
2018-03-18T01:23:11.048Z,-2.35
2018-03-18T01:24:10.959Z,-2.46
2018-03-18T01:25:10.877Z,-2.52
2018-03-18T01:26:10.785Z,-2.42
2018-03-18T01:27:10.697Z,-2.49
2018-03-18T01:28:10.609Z,-2.42
2018-03-18T01:29:10.521Z,-2.38
2018-03-18T01:30:10.434Z,-2.35
2018-03-18T01:31:10.347Z,-2.32
2018-03-18T01:32:10.258Z,-2.35
2018-03-18T01:33:10.171Z,-2.45
2018-03-18T01:34:10.084Z,-2.35
2018-03-18T01:35:10.000Z,-2.35
2018-03-18T01:36:09.908Z,-2.41
2018-03-18T01:37:09.820Z,-2.39
2018-03-18T01:38:09.732Z,-2.41
2018-03-18T01:39:09.646Z,-2.45
2018-03-18T01:40:09.557Z,-2.34
2018-03-18T01:41:09.470Z,-2.36
2018-03-18T01:42:09.383Z,-2.28
2018-03-18T01:43:09.322Z,-2.30
2018-03-18T01:44:09.207Z,-2.23
2018-03-18T01:45:09.120Z,-2.17
2018-03-18T01:46:09.031Z,-2.12
2018-03-18T01:47:08.947Z,-2.27
2018-03-18T01:48:08.856Z,-2.34
2018-03-18T01:49:08.769Z,-2.42
2018-03-18T01:50:08.682Z,-2.50
2018-03-18T01:51:08.594Z,-2.41
2018-03-18T01:52:08.506Z,-2.36
2018-03-18T01:53:08.420Z,-2.36
2018-03-18T01:54:08.332Z,-2.36
2018-03-18T01:55:08.245Z,-2.25
2018-03-18T01:56:08.156Z,-2.35
2018-03-18T01:57:08.071Z,-2.34
2018-03-18T01:58:07.982Z,-2.30
2018-03-18T01:59:07.894Z,-2.28
2018-03-18T02:00:07.809Z,-2.53
2018-03-18T02:01:07.719Z,-2.45
2018-03-18T02:02:07.631Z,-2.30
2018-03-18T02:03:07.545Z,-2.36
2018-03-18T02:04:07.454Z,-2.38
2018-03-18T02:05:07.371Z,-2.50
2018-03-18T02:06:07.281Z,-2.38
2018-03-18T02:07:07.195Z,-2.41
2018-03-18T02:08:07.105Z,-2.41
2018-03-18T02:09:07.018Z,-2.38
2018-03-18T02:10:06.931Z,-2.46
2018-03-18T02:11:06.891Z,-2.41
2018-03-18T02:12:06.755Z,-2.41
2018-03-18T02:13:06.666Z,-2.46
2018-03-18T02:14:06.580Z,-2.49
2018-03-18T02:15:06.492Z,-2.42
2018-03-18T02:16:06.404Z,-2.42
2018-03-18T02:17:06.316Z,-2.35
2018-03-18T02:18:06.229Z,-2.32
2018-03-18T02:19:06.142Z,-2.23
2018-03-18T02:20:06.054Z,-2.27
2018-03-18T02:21:05.966Z,-2.35
2018-03-18T02:22:05.878Z,-2.42
2018-03-18T02:23:05.806Z,-2.56
2018-03-18T02:24:05.708Z,-2.62
2018-03-18T02:25:05.622Z,-2.64
2018-03-18T02:26:05.528Z,-2.56
2018-03-18T02:27:05.441Z,-2.60
2018-03-18T02:28:05.351Z,-2.57
2018-03-18T02:29:05.265Z,-2.54
2018-03-18T02:30:05.181Z,-2.56
2018-03-18T02:31:05.091Z,-2.54
2018-03-18T02:32:05.005Z,-2.50
2018-03-18T02:33:04.914Z,-2.56
2018-03-18T02:34:04.827Z,-2.57
2018-03-18T02:35:04.741Z,-2.50
2018-03-18T02:36:04.664Z,-2.52
2018-03-18T02:37:04.563Z,-2.57
2018-03-18T02:38:04.476Z,-2.62
2018-03-18T02:39:04.389Z,-2.52
2018-03-18T02:40:04.304Z,-2.54
2018-03-18T02:41:04.213Z,-2.57
2018-03-18T02:42:04.125Z,-2.54
2018-03-18T02:43:04.036Z,-2.54
2018-03-18T02:44:03.949Z,-2.56
2018-03-18T02:45:03.865Z,-2.52
2018-03-18T02:46:03.774Z,-2.64
2018-03-18T02:47:03.685Z,-2.54
2018-03-18T02:48:03.597Z,-2.52
2018-03-18T02:49:03.512Z,-2.47
2018-03-18T02:50:03.422Z,-2.56
2018-03-18T02:51:03.334Z,-2.59
2018-03-18T02:52:03.252Z,-2.65
2018-03-18T02:53:03.169Z,-2.56
2018-03-18T02:54:03.071Z,-2.53
2018-03-18T02:55:02.983Z,-2.50
2018-03-18T02:56:02.894Z,-2.49
2018-03-18T02:57:02.807Z,-2.50
2018-03-18T02:58:02.719Z,-2.56
2018-03-18T02:59:02.781Z,-2.54
2018-03-18T03:00:02.545Z,-2.56
2018-03-18T03:01:02.459Z,-2.59
2018-03-18T03:02:02.367Z,-2.59
2018-03-18T03:03:02.279Z,-2.53
2018-03-18T03:04:02.193Z,-2.62
2018-03-18T03:05:02.103Z,-2.56
2018-03-18T03:06:02.015Z,-2.57
2018-03-18T03:07:01.929Z,-2.68
2018-03-18T03:08:01.841Z,-2.62
2018-03-18T03:09:01.750Z,-2.64
2018-03-18T03:10:01.663Z,-2.56
2018-03-18T03:11:01.581Z,-2.62
2018-03-18T03:12:01.487Z,-2.65
2018-03-18T03:13:01.399Z,-2.59
2018-03-18T03:14:01.313Z,-2.60
2018-03-18T03:15:01.224Z,-2.57
2018-03-18T03:16:01.134Z,-2.57
2018-03-18T03:17:01.047Z,-2.59
2018-03-18T03:18:00.962Z,-2.64
2018-03-18T03:19:00.871Z,-2.65
2018-03-18T03:20:00.783Z,-2.52
2018-03-18T03:21:00.695Z,-2.57
2018-03-18T03:22:00.607Z,-2.68
2018-03-18T03:23:00.520Z,-2.64
2018-03-18T03:24:00.430Z,-2.74
2018-03-18T03:25:00.343Z,-2.65
2018-03-18T03:26:00.255Z,-2.74
2018-03-18T03:27:00.167Z,-2.77
2018-03-18T03:28:00.079Z,-2.68
2018-03-18T03:28:59.992Z,-2.60
2018-03-18T03:29:59.903Z,-2.74
2018-03-18T03:30:59.816Z,-2.71
2018-03-18T03:31:59.726Z,-2.68
2018-03-18T03:32:59.639Z,-2.71
2018-03-18T03:33:59.549Z,-2.68
2018-03-18T03:34:59.465Z,-2.83
2018-03-18T03:35:59.372Z,-2.71
2018-03-18T03:36:59.284Z,-2.75
2018-03-18T03:37:59.197Z,-2.68
2018-03-18T03:38:59.108Z,-2.70
2018-03-18T03:39:59.023Z,-2.65
2018-03-18T03:40:58.931Z,-2.68
2018-03-18T03:41:58.843Z,-2.67
2018-03-18T03:42:58.755Z,-2.67
2018-03-18T03:43:58.666Z,-2.71
2018-03-18T03:44:58.578Z,-2.65
2018-03-18T03:45:58.491Z,-2.67
2018-03-18T03:46:58.403Z,-2.64
2018-03-18T03:47:58.314Z,-2.71
2018-03-18T03:48:58.225Z,-2.71
2018-03-18T03:49:58.137Z,-2.70
2018-03-18T03:50:58.050Z,-2.73
2018-03-18T03:51:57.961Z,-2.82
2018-03-18T03:52:57.872Z,-2.80
2018-03-18T03:53:57.785Z,-2.70
2018-03-18T03:54:57.696Z,-2.71
2018-03-18T03:55:57.607Z,-2.77
2018-03-18T03:56:57.520Z,-2.83
2018-03-18T03:57:57.431Z,-2.89
2018-03-18T03:58:57.343Z,-2.82
2018-03-18T03:59:57.256Z,-2.74
2018-03-18T04:00:57.166Z,-2.88
2018-03-18T04:01:57.077Z,-2.85
2018-03-18T04:02:56.990Z,-2.80
2018-03-18T04:03:56.900Z,-2.71
2018-03-18T04:04:56.811Z,-2.70
2018-03-18T04:05:56.724Z,-2.74
2018-03-18T04:06:56.636Z,-2.86
2018-03-18T04:07:56.546Z,-2.71
2018-03-18T04:08:56.458Z,-2.73
2018-03-18T04:09:56.370Z,-2.71
2018-03-18T04:10:56.287Z,-2.67
2018-03-18T04:11:56.192Z,-2.68
2018-03-18T04:12:56.104Z,-2.82
2018-03-18T04:13:56.017Z,-2.74
2018-03-18T04:14:55.928Z,-2.73
2018-03-18T04:15:55.838Z,-2.86
2018-03-18T04:16:55.752Z,-2.86
2018-03-18T04:17:55.663Z,-2.78
2018-03-18T04:18:55.581Z,-2.82
2018-03-18T04:19:55.486Z,-2.70
2018-03-18T04:20:55.399Z,-2.74
2018-03-18T04:21:55.309Z,-2.82
2018-03-18T04:22:55.221Z,-2.73
2018-03-18T04:23:55.132Z,-2.74
2018-03-18T04:24:55.043Z,-2.71
2018-03-18T04:25:54.957Z,-2.77
2018-03-18T04:26:54.870Z,-2.75
2018-03-18T04:27:54.779Z,-2.82
2018-03-18T04:28:54.694Z,-2.78
2018-03-18T04:29:54.603Z,-2.80
2018-03-18T04:30:54.515Z,-2.70
2018-03-18T04:31:54.426Z,-2.77
2018-03-18T04:32:54.338Z,-2.70
2018-03-18T04:33:54.295Z,-2.67
2018-03-18T04:34:54.162Z,-2.80
2018-03-18T04:35:54.074Z,-2.71
2018-03-18T04:36:53.986Z,-2.68
2018-03-18T04:37:53.898Z,-2.77
2018-03-18T04:38:53.809Z,-2.80
2018-03-18T04:39:53.720Z,-2.70
2018-03-18T04:40:53.633Z,-2.80
2018-03-18T04:41:53.544Z,-2.82
2018-03-18T04:42:53.457Z,-2.71
2018-03-18T04:43:53.368Z,-2.70
2018-03-18T04:44:53.280Z,-2.91
2018-03-18T04:45:53.192Z,-2.77
2018-03-18T04:46:53.104Z,-2.73
2018-03-18T04:47:53.016Z,-2.77
2018-03-18T04:48:52.928Z,-2.74
2018-03-18T04:49:52.841Z,-2.73
2018-03-18T04:50:52.752Z,-2.71
2018-03-18T04:51:52.663Z,-2.74
2018-03-18T04:52:52.578Z,-2.67
2018-03-18T04:53:52.488Z,-2.71
2018-03-18T04:54:52.401Z,-2.89
2018-03-18T04:55:52.314Z,-2.92
2018-03-18T04:56:52.224Z,-2.96
2018-03-18T04:57:52.136Z,-3.01
2018-03-18T04:58:52.048Z,-2.88
2018-03-18T04:59:51.960Z,-2.85
2018-03-18T05:00:51.872Z,-2.88
2018-03-18T05:01:51.783Z,-2.82
2018-03-18T05:02:51.696Z,-2.80
2018-03-18T05:03:51.606Z,-2.88
2018-03-18T05:04:51.520Z,-2.82
2018-03-18T05:05:51.433Z,-2.83
2018-03-18T05:06:51.344Z,-2.91
2018-03-18T05:07:51.253Z,-2.95
2018-03-18T05:08:51.166Z,-2.89
2018-03-18T05:09:51.079Z,-2.80
2018-03-18T05:10:50.990Z,-2.89
2018-03-18T05:11:50.901Z,-2.88
2018-03-18T05:12:50.824Z,-2.95
2018-03-18T05:13:50.725Z,-2.96
2018-03-18T05:14:50.987Z,-2.91
2018-03-18T05:15:50.548Z,-2.86
2018-03-18T05:16:50.460Z,-2.71
2018-03-18T05:17:50.372Z,-2.71
2018-03-18T05:18:50.284Z,-2.68
2018-03-18T05:19:50.194Z,-2.67
2018-03-18T05:20:50.107Z,-2.85
2018-03-18T05:21:50.019Z,-2.78
2018-03-18T05:22:49.931Z,-2.92
2018-03-18T05:23:49.842Z,-2.92
2018-03-18T05:24:49.754Z,-2.86
2018-03-18T05:25:49.666Z,-2.88
2018-03-18T05:26:49.578Z,-2.93
2018-03-18T05:27:49.490Z,-2.93
2018-03-18T05:28:49.401Z,-2.91
2018-03-18T05:29:49.312Z,-2.83
2018-03-18T05:30:49.225Z,-2.86
2018-03-18T05:31:49.136Z,-2.85
2018-03-18T05:32:49.048Z,-2.92
2018-03-18T05:33:48.960Z,-2.91
2018-03-18T05:34:48.871Z,-2.83
2018-03-18T05:35:48.783Z,-2.86
2018-03-18T05:36:48.695Z,-2.77
2018-03-18T05:37:48.605Z,-2.85
2018-03-18T05:38:48.518Z,-2.91
2018-03-18T05:39:48.429Z,-2.91
2018-03-18T05:40:48.342Z,-2.89
2018-03-18T05:41:48.254Z,-2.92
2018-03-18T05:42:48.167Z,-2.83
2018-03-18T05:43:48.080Z,-2.89
2018-03-18T05:44:47.989Z,-2.86
2018-03-18T05:45:47.902Z,-2.88
2018-03-18T05:46:47.813Z,-2.88
2018-03-18T05:47:47.724Z,-2.92
2018-03-18T05:48:47.636Z,-2.71
2018-03-18T05:49:47.548Z,-2.73
2018-03-18T05:50:47.460Z,-2.71
2018-03-18T05:51:47.371Z,-2.71
2018-03-18T05:52:47.284Z,-2.71
2018-03-18T05:53:47.196Z,-2.68
2018-03-18T05:54:47.120Z,-2.73
2018-03-18T05:55:47.019Z,-2.88
2018-03-18T05:56:46.931Z,-3.03
2018-03-18T05:57:46.843Z,-2.93
2018-03-18T05:58:46.761Z,-2.88
2018-03-18T05:59:46.670Z,-2.88
2018-03-18T06:00:46.979Z,-2.86
2018-03-18T06:01:46.491Z,-2.77
2018-03-18T06:02:46.402Z,-2.80
2018-03-18T06:03:46.314Z,-2.92
2018-03-18T06:04:46.226Z,-2.78
2018-03-18T06:05:46.138Z,-2.95
2018-03-18T06:06:46.051Z,-2.95
2018-03-18T06:07:45.961Z,-2.95
2018-03-18T06:08:45.873Z,-2.89
2018-03-18T06:09:45.785Z,-2.88
2018-03-18T06:10:45.698Z,-2.95
2018-03-18T06:11:45.758Z,-2.91
2018-03-18T06:12:45.521Z,-2.86
2018-03-18T06:13:45.433Z,-2.88
2018-03-18T06:14:45.344Z,-2.85
2018-03-18T06:15:45.258Z,-2.77
2018-03-18T06:16:45.168Z,-2.86
2018-03-18T06:17:45.080Z,-2.82
2018-03-18T06:18:44.992Z,-2.92
2018-03-18T06:19:44.903Z,-2.88
2018-03-18T06:20:44.816Z,-2.86
2018-03-18T06:21:44.726Z,-2.77
2018-03-18T06:22:44.639Z,-2.82
2018-03-18T06:23:44.550Z,-2.89
2018-03-18T06:24:44.478Z,-2.70
2018-03-18T06:25:44.376Z,-2.88
2018-03-18T06:26:44.287Z,-3.04
2018-03-18T06:27:44.201Z,-2.91
2018-03-18T06:28:44.109Z,-2.93
2018-03-18T06:29:44.021Z,-2.89
2018-03-18T06:30:43.934Z,-2.85
2018-03-18T06:31:43.844Z,-2.88
2018-03-18T06:32:43.757Z,-2.68
2018-03-18T06:33:43.668Z,-2.77
2018-03-18T06:34:43.580Z,-2.68
2018-03-18T06:35:43.492Z,-2.68
2018-03-18T06:36:43.403Z,-2.93
2018-03-18T06:37:43.316Z,-2.89
2018-03-18T06:38:43.231Z,-2.92
2018-03-18T06:39:43.140Z,-2.91
2018-03-18T06:40:43.056Z,-2.85
2018-03-18T06:41:42.965Z,-2.86
2018-03-18T06:42:42.878Z,-2.88
2018-03-18T06:43:42.788Z,-2.86
2018-03-18T06:44:42.700Z,-2.82
2018-03-18T06:45:42.611Z,-2.89
2018-03-18T06:46:42.524Z,-2.96
2018-03-18T06:47:42.456Z,-2.86
2018-03-18T06:48:42.347Z,-2.80
2018-03-18T06:49:42.259Z,-2.73
2018-03-18T06:50:42.172Z,-2.78
2018-03-18T06:51:42.082Z,-2.83
2018-03-18T06:52:41.995Z,-2.73
2018-03-18T06:53:41.906Z,-2.75
2018-03-18T06:54:41.818Z,-2.67
2018-03-18T06:55:41.733Z,-2.67
2018-03-18T06:56:41.641Z,-2.70
2018-03-18T06:57:41.554Z,-2.67
2018-03-18T06:58:41.466Z,-2.77
2018-03-18T06:59:41.377Z,-2.68
2018-03-18T07:00:41.292Z,-2.67
2018-03-18T07:01:41.202Z,-2.75
2018-03-18T07:02:41.114Z,-2.78
2018-03-18T07:03:41.024Z,-2.71
2018-03-18T07:04:40.942Z,-2.73
2018-03-18T07:05:40.848Z,-2.73
2018-03-18T07:06:40.761Z,-2.70
2018-03-18T07:07:40.672Z,-2.80
2018-03-18T07:08:40.585Z,-2.70
2018-03-18T07:09:40.497Z,-2.68
2018-03-18T07:10:40.409Z,-2.65
2018-03-18T07:11:40.320Z,-2.71
2018-03-18T07:12:40.232Z,-2.67
2018-03-18T07:13:40.144Z,-2.56
2018-03-18T07:14:40.057Z,-2.54
2018-03-18T07:15:39.968Z,-2.65
2018-03-18T07:16:39.887Z,-2.54
2018-03-18T07:17:39.794Z,-2.64
2018-03-18T07:18:39.706Z,-2.67
2018-03-18T07:19:39.617Z,-2.59
2018-03-18T07:20:39.528Z,-2.54
2018-03-18T07:21:39.441Z,-2.56
2018-03-18T07:22:39.356Z,-2.59
2018-03-18T07:23:39.263Z,-2.59
2018-03-18T07:24:39.177Z,-2.53
2018-03-18T07:25:39.089Z,-2.56
2018-03-18T07:26:39.002Z,-2.68
2018-03-18T07:27:38.913Z,-2.56
2018-03-18T07:28:38.825Z,-2.53
2018-03-18T07:29:38.740Z,-2.42
2018-03-18T07:30:38.653Z,-2.36
2018-03-18T07:31:38.568Z,-2.27
2018-03-18T07:32:38.474Z,-2.36
2018-03-18T07:33:38.388Z,-2.54
2018-03-18T07:34:38.305Z,-2.50
2018-03-18T07:35:38.212Z,-2.68
2018-03-18T07:36:38.123Z,-2.70
2018-03-18T07:37:38.037Z,-2.57
2018-03-18T07:38:37.976Z,-2.50
2018-03-18T07:39:37.860Z,-2.42
2018-03-18T07:40:37.774Z,-2.42
2018-03-18T07:41:37.686Z,-2.28
2018-03-18T07:42:37.599Z,-2.34
2018-03-18T07:43:37.510Z,-2.38
2018-03-18T07:44:37.423Z,-2.38
2018-03-18T07:45:37.337Z,-2.45
2018-03-18T07:46:37.251Z,-2.54
2018-03-18T07:47:37.161Z,-2.59
2018-03-18T07:48:37.073Z,-2.56
2018-03-18T07:49:36.986Z,-2.53
2018-03-18T07:50:36.898Z,-2.49
2018-03-18T07:51:36.810Z,-2.45
2018-03-18T07:52:36.722Z,-2.59
2018-03-18T07:53:36.635Z,-2.53
2018-03-18T07:54:36.548Z,-2.49
2018-03-18T07:55:36.459Z,-2.42
2018-03-18T07:56:36.373Z,-2.23
2018-03-18T07:57:36.284Z,-2.19
2018-03-18T07:58:36.197Z,-2.20
2018-03-18T07:59:36.109Z,-2.28
2018-03-18T08:00:36.022Z,-2.30
2018-03-18T08:01:35.940Z,-2.34
2018-03-18T08:02:35.847Z,-2.38
2018-03-18T08:03:35.789Z,-2.30
2018-03-18T08:04:35.673Z,-2.27
2018-03-18T08:05:35.584Z,-2.32
2018-03-18T08:06:35.497Z,-2.22
2018-03-18T08:07:35.409Z,-2.30
2018-03-18T08:08:35.322Z,-2.23
2018-03-18T08:09:35.238Z,-2.13
2018-03-18T08:10:35.147Z,-2.16
2018-03-18T08:11:35.059Z,-2.09
2018-03-18T08:12:34.974Z,-2.10
2018-03-18T08:13:34.884Z,-1.98
2018-03-18T08:14:34.798Z,-1.92
2018-03-18T08:15:34.713Z,-2.10
2018-03-18T08:16:34.773Z,-2.16
2018-03-18T08:17:34.535Z,-2.17
2018-03-18T08:18:34.448Z,-2.02
2018-03-18T08:19:34.362Z,-1.97
2018-03-18T08:20:34.274Z,-1.97
2018-03-18T08:21:34.188Z,-1.84
2018-03-18T08:22:34.099Z,-1.94
2018-03-18T08:23:34.012Z,-2.02
2018-03-18T08:24:33.925Z,-1.88
2018-03-18T08:25:33.838Z,-2.06
2018-03-18T08:26:33.751Z,-1.98
2018-03-18T08:27:33.663Z,-2.01
2018-03-18T08:28:33.577Z,-1.95
2018-03-18T08:29:33.490Z,-1.88
2018-03-18T08:30:33.402Z,-1.99
2018-03-18T08:31:33.315Z,-1.99
2018-03-18T08:32:33.228Z,-1.95
2018-03-18T08:33:33.148Z,-1.95
2018-03-18T08:34:33.054Z,-1.89
2018-03-18T08:35:32.966Z,-1.91
2018-03-18T08:36:32.880Z,-1.88
2018-03-18T08:37:32.793Z,-1.73
2018-03-18T08:38:32.706Z,-1.58
2018-03-18T08:39:32.619Z,-1.55
2018-03-18T08:40:32.532Z,-1.56
2018-03-18T08:41:32.446Z,-1.45
2018-03-18T08:42:32.358Z,-1.60
2018-03-18T08:43:32.271Z,-1.65
2018-03-18T08:44:32.189Z,-1.80
2018-03-18T08:45:32.098Z,-2.12
2018-03-18T08:46:32.011Z,-2.13
2018-03-18T08:47:31.924Z,-2.04
2018-03-18T08:48:31.836Z,-1.97
2018-03-18T08:49:31.799Z,-1.88
2018-03-18T08:50:31.668Z,-1.65
2018-03-18T08:51:31.576Z,-1.56
2018-03-18T08:52:31.493Z,-1.53
2018-03-18T08:53:31.403Z,-1.50
2018-03-18T08:54:31.318Z,-1.78
2018-03-18T08:55:31.231Z,-1.65
2018-03-18T08:56:31.142Z,-1.86
2018-03-18T08:57:31.059Z,-1.88
2018-03-18T08:58:30.970Z,-2.01
2018-03-18T08:59:30.882Z,-1.99
2018-03-18T09:00:30.796Z,-1.81
2018-03-18T09:01:30.709Z,-1.78
2018-03-18T09:02:30.622Z,-1.65
2018-03-18T09:03:30.534Z,-1.52
2018-03-18T09:04:30.448Z,-1.32
2018-03-18T09:05:30.362Z,-1.50
2018-03-18T09:06:30.276Z,-1.58
2018-03-18T09:07:30.188Z,-1.60
2018-03-18T09:08:30.102Z,-1.62
2018-03-18T09:09:30.016Z,-1.55
2018-03-18T09:10:29.930Z,-1.48
2018-03-18T09:11:29.842Z,-1.62
2018-03-18T09:12:29.756Z,-1.55
2018-03-18T09:13:29.670Z,-1.74
2018-03-18T09:14:29.585Z,-1.65
2018-03-18T09:15:29.501Z,-1.84
2018-03-18T09:16:29.411Z,-1.88
2018-03-18T09:17:29.324Z,-1.78
2018-03-18T09:18:29.238Z,-1.48
2018-03-18T09:19:29.150Z,-1.37
2018-03-18T09:20:29.065Z,-1.35
2018-03-18T09:21:28.978Z,-1.35
2018-03-18T09:22:28.893Z,-1.53
2018-03-18T09:23:28.804Z,-1.47
2018-03-18T09:24:28.717Z,-1.34
2018-03-18T09:25:28.631Z,-1.24
2018-03-18T09:26:28.546Z,-1.50
2018-03-18T09:27:28.458Z,-1.47
2018-03-18T09:28:28.373Z,-1.56
2018-03-18T09:29:28.292Z,-1.52
2018-03-18T09:30:28.200Z,-1.34
2018-03-18T09:31:28.113Z,-1.44
2018-03-18T09:32:28.027Z,-1.45
2018-03-18T09:33:27.946Z,-1.41
2018-03-18T09:34:27.855Z,-1.32
2018-03-18T09:35:27.771Z,-1.34
2018-03-18T09:36:27.681Z,-1.58
2018-03-18T09:37:27.595Z,-1.45
2018-03-18T09:38:27.509Z,-1.35
2018-03-18T09:39:27.422Z,-1.17
2018-03-18T09:40:27.336Z,-1.14
2018-03-18T09:41:27.250Z,-1.27
2018-03-18T09:42:27.164Z,-1.30
2018-03-18T09:43:27.077Z,-1.17
2018-03-18T09:44:26.991Z,-1.14
2018-03-18T09:45:26.905Z,-1.09
2018-03-18T09:46:26.819Z,-0.98
2018-03-18T09:47:26.732Z,-1.01
2018-03-18T09:48:26.646Z,-1.26
2018-03-18T09:49:26.563Z,-1.27
2018-03-18T09:50:26.474Z,-1.27
2018-03-18T09:51:26.389Z,-1.24
2018-03-18T09:52:26.302Z,-1.08
2018-03-18T09:53:26.216Z,-1.16
2018-03-18T09:54:26.130Z,-1.23
2018-03-18T09:55:26.043Z,-1.09
2018-03-18T09:56:25.969Z,-1.08
2018-03-18T09:57:25.872Z,-1.14
2018-03-18T09:58:25.788Z,-1.26
2018-03-18T09:59:25.733Z,-1.16
2018-03-18T10:00:25.612Z,-1.20
2018-03-18T10:01:25.529Z,-1.17
2018-03-18T10:02:25.440Z,-1.14
2018-03-18T10:03:25.354Z,-1.02
2018-03-18T10:04:25.267Z,-1.29
2018-03-18T10:05:25.199Z,-1.17
2018-03-18T10:06:25.096Z,-1.13
2018-03-18T10:07:25.009Z,-1.22
2018-03-18T10:08:24.923Z,-1.08
2018-03-18T10:09:24.838Z,-1.06
2018-03-18T10:10:24.751Z,-1.03
2018-03-18T10:11:24.664Z,-0.90
2018-03-18T10:12:24.577Z,-0.99
2018-03-18T10:13:24.492Z,-0.82
2018-03-18T10:14:24.415Z,-0.91
2018-03-18T10:15:24.319Z,-0.82
2018-03-18T10:16:24.234Z,-0.72
2018-03-18T10:17:24.148Z,-1.05
2018-03-18T10:18:24.061Z,-0.90
2018-03-18T10:19:23.981Z,-0.82
2018-03-18T10:20:23.947Z,-0.87
2018-03-18T10:21:23.803Z,-0.98
2018-03-18T10:22:23.717Z,-0.90
2018-03-18T10:23:23.635Z,-0.83
2018-03-18T10:24:23.544Z,-0.80
2018-03-18T10:25:23.459Z,-0.68
2018-03-18T10:26:23.372Z,-0.58
2018-03-18T10:27:23.287Z,-0.56
2018-03-18T10:28:23.200Z,-0.71
2018-03-18T10:29:23.115Z,-0.74
2018-03-18T10:30:23.030Z,-0.61
2018-03-18T10:31:22.953Z,-0.64
2018-03-18T10:32:22.858Z,-0.58
2018-03-18T10:33:22.773Z,-0.41
2018-03-18T10:34:22.688Z,-0.51
2018-03-18T10:35:22.600Z,-0.48
2018-03-18T10:36:22.515Z,-0.38
2018-03-18T10:37:22.434Z,-0.32
2018-03-18T10:38:22.352Z,-0.20
2018-03-18T10:39:22.258Z,-0.40
2018-03-18T10:40:22.178Z,-0.29
2018-03-18T10:41:22.088Z,-0.33
2018-03-18T10:42:22.003Z,-0.48
2018-03-18T10:43:21.917Z,-0.54
2018-03-18T10:44:21.832Z,-0.54
2018-03-18T10:45:21.746Z,-0.47
2018-03-18T10:46:21.662Z,-0.47
2018-03-18T10:47:21.575Z,-0.68
2018-03-18T10:48:21.489Z,-0.71
2018-03-18T10:49:21.406Z,-0.68
2018-03-18T10:50:21.319Z,-0.58
2018-03-18T10:51:21.234Z,-0.72
2018-03-18T10:52:21.147Z,-0.82
2018-03-18T10:53:21.062Z,-0.68
2018-03-18T10:54:20.977Z,-0.72
2018-03-18T10:55:20.914Z,-0.66
2018-03-18T10:56:20.805Z,-0.62
2018-03-18T10:57:20.720Z,-0.64
2018-03-18T10:58:20.642Z,-0.47
2018-03-18T10:59:20.552Z,-0.59
2018-03-18T11:00:20.462Z,-0.51
2018-03-18T11:01:20.403Z,-0.51
2018-03-18T11:02:20.290Z,-0.50
2018-03-18T11:03:20.205Z,-0.17
2018-03-18T11:04:20.124Z,-0.22
2018-03-18T11:05:20.033Z,-0.11
2018-03-18T11:06:19.948Z,-0.08
2018-03-18T11:07:19.862Z,-0.12
2018-03-18T11:08:19.777Z,0.07
2018-03-18T11:09:19.692Z,0.27
2018-03-18T11:10:19.606Z,0.34
2018-03-18T11:11:19.520Z,0.22
2018-03-18T11:12:19.436Z,0.11
2018-03-18T11:13:19.350Z,-0.01
2018-03-18T11:14:19.266Z,-0.19
2018-03-18T11:15:19.180Z,-0.28
2018-03-18T11:16:19.127Z,-0.17
2018-03-18T11:17:19.011Z,-0.28
2018-03-18T11:18:18.925Z,-0.15
2018-03-18T11:19:18.839Z,-0.10
2018-03-18T11:20:18.754Z,-0.14
2018-03-18T11:21:18.669Z,-0.14
2018-03-18T11:22:18.593Z,-0.17
2018-03-18T11:23:18.499Z,0.01
2018-03-18T11:24:18.414Z,0.27
2018-03-18T11:25:18.329Z,0.49
2018-03-18T11:26:18.244Z,0.64
2018-03-18T11:27:18.160Z,0.69
2018-03-18T11:28:18.073Z,0.72
2018-03-18T11:29:17.990Z,0.71
2018-03-18T11:30:17.906Z,0.97
2018-03-18T11:31:17.821Z,0.90
2018-03-18T11:32:17.736Z,0.97
2018-03-18T11:33:17.652Z,0.93
2018-03-18T11:34:17.568Z,0.53
2018-03-18T11:35:17.483Z,0.29
2018-03-18T11:36:17.399Z,0.27
2018-03-18T11:37:17.315Z,0.50
2018-03-18T11:38:17.231Z,0.69
2018-03-18T11:39:17.147Z,0.68
2018-03-18T11:40:17.063Z,0.31
2018-03-18T11:41:16.979Z,0.34
2018-03-18T11:42:16.895Z,0.29
2018-03-18T11:43:16.811Z,0.34
2018-03-18T11:44:16.727Z,0.28
2018-03-18T11:45:16.643Z,0.34
2018-03-18T11:46:16.558Z,0.49
2018-03-18T11:47:16.474Z,0.46
2018-03-18T11:48:16.390Z,0.61
2018-03-18T11:49:16.307Z,0.62
2018-03-18T11:50:16.222Z,0.72
2018-03-18T11:51:16.138Z,0.79
2018-03-18T11:52:16.095Z,0.77
2018-03-18T11:53:15.970Z,0.59
2018-03-18T11:54:15.886Z,0.56
2018-03-18T11:55:15.802Z,0.34
2018-03-18T11:56:15.717Z,0.18
2018-03-18T11:57:15.637Z,0.17
2018-03-18T11:58:15.550Z,0.13
2018-03-18T11:59:15.466Z,0.14
2018-03-18T12:00:15.382Z,0.03
2018-03-18T12:01:15.298Z,-0.14
2018-03-18T12:02:15.213Z,-0.07
2018-03-18T12:03:15.128Z,-0.04
2018-03-18T12:04:15.043Z,0.13
2018-03-18T12:05:14.959Z,0.27
2018-03-18T12:06:14.881Z,0.29
2018-03-18T12:07:14.794Z,0.42
2018-03-18T12:08:14.706Z,0.46
2018-03-18T12:09:14.623Z,0.46
2018-03-18T12:10:14.538Z,-0.01
2018-03-18T12:11:14.452Z,-0.01
2018-03-18T12:12:14.368Z,0.04
2018-03-18T12:13:14.284Z,0.25
2018-03-18T12:14:14.200Z,0.27
2018-03-18T12:15:14.114Z,0.11
2018-03-18T12:16:14.030Z,0.31
2018-03-18T12:17:13.946Z,0.21
2018-03-18T12:18:13.861Z,0.35
2018-03-18T12:19:13.775Z,0.45
2018-03-18T12:20:13.692Z,0.72
2018-03-18T12:21:13.607Z,0.84
2018-03-18T12:22:13.523Z,0.57
2018-03-18T12:23:13.438Z,0.62
2018-03-18T12:24:13.353Z,0.71
2018-03-18T12:25:13.269Z,0.79
2018-03-18T12:26:13.185Z,0.64
2018-03-18T12:27:13.101Z,0.72
2018-03-18T12:28:13.016Z,0.87
2018-03-18T12:29:12.932Z,0.90
2018-03-18T12:30:12.849Z,0.75
2018-03-18T12:31:12.766Z,0.66
2018-03-18T12:32:12.680Z,0.66
2018-03-18T12:33:12.597Z,0.80
2018-03-18T12:34:12.513Z,0.74
2018-03-18T12:35:12.428Z,0.89
2018-03-18T12:36:12.345Z,1.01
2018-03-18T12:37:12.260Z,1.04
2018-03-18T12:38:12.177Z,0.98
2018-03-18T12:39:12.101Z,0.97
2018-03-18T12:40:12.009Z,1.01
2018-03-18T12:41:11.926Z,0.94
2018-03-18T12:42:11.845Z,1.01
2018-03-18T12:43:11.758Z,0.93
2018-03-18T12:44:11.675Z,1.08
2018-03-18T12:45:11.591Z,1.08
2018-03-18T12:46:11.508Z,1.12
2018-03-18T12:47:11.424Z,1.18
2018-03-18T12:48:11.346Z,1.07
2018-03-18T12:49:11.258Z,1.15
2018-03-18T12:50:11.175Z,1.38
2018-03-18T12:51:11.091Z,1.38
2018-03-18T12:52:11.008Z,1.46
2018-03-18T12:53:10.925Z,1.58
2018-03-18T12:54:10.842Z,1.68